Date,TemperatureHighF,TemperatureAvgF,TemperatureLowF,DewpointHighF,DewpointAvgF,DewpointLowF,HumidityHigh,HumidityAvg,HumidityLow,PressureMaxIn,PressureMinIn,WindSpeedMaxMPH,WindSpeedAvgMPH,GustSpeedMaxMPH,PrecipitationSumIn
2014-1-1,10.1,4.7,-3.2,8.0,1.5,-6.0,91,80,66,30.29,30.04,11,2,13,0.00
2014-1-2,-3.4,-9.1,-13.5,0.0,-6.2,-13.0,92,88,84,30.27,29.89,8,2,10,0.00
2014-1-3,-1.8,-12.7,-24.2,-6.0,-11.2,-23.0,93,86,66,30.26,29.87,8,1,11,0.00
2014-1-4,29.5,6.5,-24.6,18.0,1.6,-23.0,93,75,37,30.25,30.00,10,1,13,0.06
2014-1-5,46.7,28.4,15.9,45.0,22.0,8.0,96,76,49,30.16,29.70,27,2,31,0.38
2014-1-6,51.1,32.7,6.8,48.0,30.1,4.0,97,89,76,29.69,29.33,29,6,37,0.58
2014-1-7,6.7,0.5,-1.5,4.0,-3.0,-6.0,89,79,70,29.96,29.51,20,4,34,0.00
2014-1-8,13.3,6.7,1.1,8.0,3.1,0.0,89,79,64,30.28,29.96,17,3,17,0.00
2014-1-9,18.9,7.1,-10.1,11.0,5.5,-6.0,92,86,60,30.50,30.27,10,1,15,0.00
2014-1-10,31.1,15.9,-9.7,29.0,15.9,-6.0,94,92,84,30.40,30.12,6,0,7,0.00
2014-1-11,50.7,41.9,20.2,50.0,40.7,18.0,97,96,90,30.13,29.27,19,2,24,0.74
2014-1-12,38.9,31.2,29.3,38.0,29.1,24.0,96,91,82,29.94,29.35,15,4,24,0.02
2014-1-13,47.5,34.6,17.7,36.0,25.2,16.0,94,71,41,29.98,29.77,18,4,22,0.04
2014-1-14,40.3,37.3,30.1,39.0,36.1,26.0,96,95,84,29.82,29.72,12,2,16,0.18
2014-1-15,42.7,29.6,19.9,35.0,27.1,18.0,95,89,71,29.94,29.80,14,1,19,0.00
2014-1-16,27.2,22.5,12.6,26.0,20.9,11.0,94,92,86,29.95,29.87,4,0,6,0.03
2014-1-17,29.4,21.2,7.4,26.0,18.5,8.0,94,88,78,29.88,29.80,12,2,14,0.00
2014-1-18,37.5,20.7,4.8,26.0,17.6,8.0,94,85,48,29.86,29.68,5,1,8,0.03
2014-1-19,24.7,21.3,18.6,23.0,18.1,14.0,93,87,72,29.71,29.39,20,3,24,0.00
2014-1-20,24.9,11.3,-11.8,23.0,10.2,-6.0,93,90,83,29.90,29.42,13,2,16,0.01
2014-1-21,4.1,-12.5,-24.7,0.0,-10.9,-23.0,93,86,61,30.00,29.89,6,1,7,0.00
2014-1-22,5.5,-14.3,-29.9,0.0,-13.7,-23.0,94,85,61,29.95,29.77,6,1,10,0.00
2014-1-23,6.4,-9.9,-25.9,0.0,-10.5,-23.0,94,81,55,30.11,29.89,11,1,13,0.00
2014-1-24,9.3,-3.4,-22.9,0.0,-6.3,-23.0,93,74,52,30.14,29.68,22,3,26,0.00
2014-1-25,16.6,12.3,7.1,14.0,7.0,0.0,93,75,58,29.68,29.24,21,7,27,0.00
2014-1-26,12.1,1.9,-10.9,8.0,-3.1,-13.0,88,70,54,29.65,29.34,16,3,23,0.00
2014-1-27,28.1,13.0,-2.9,26.0,6.6,-6.0,94,72,38,29.89,29.29,27,5,29,0.00
2014-1-28,9.1,1.7,-3.8,0.0,-5.5,-13.0,89,67,53,30.12,29.89,16,3,17,0.00
2014-1-29,11.1,4.0,-4.6,8.0,-2.7,-13.0,83,66,46,30.07,29.83,16,3,23,0.00
2014-1-30,27.6,16.2,2.8,11.0,5.6,0.0,92,61,36,30.23,29.87,21,3,29,0.00
2014-1-31,28.4,24.7,20.0,23.0,15.7,4.0,86,67,39,30.14,29.85,17,4,25,0.00
2014-2-1,35.2,27.6,16.9,32.0,23.8,16.0,95,84,64,30.23,29.87,21,4,29,0.00
2014-2-2,34.8,30.3,22.0,33.0,29.0,21.0,95,94,91,30.10,29.83,14,2,15,0.07
2014-2-3,25.6,20.1,13.6,21.0,17.2,11.0,93,88,70,30.25,30.08,7,1,8,0.00
2014-2-4,23.9,15.2,7.4,14.0,10.9,8.0,93,81,56,30.38,30.22,9,1,11,0.00
2014-2-5,17.7,13.4,5.4,16.0,11.8,8.0,93,93,89,30.22,29.75,8,1,13,0.00
2014-2-6,15.4,5.9,-8.2,11.0,4.9,-6.0,92,86,68,30.18,30.00,9,1,14,0.01
2014-2-7,16.7,10.6,6.1,11.0,7.3,4.0,92,82,67,30.09,30.03,13,2,19,0.00
2014-2-8,17.8,10.3,6.5,11.0,7.0,4.0,92,81,62,30.16,30.07,16,2,18,0.00
2014-2-9,20.2,12.1,0.9,14.0,9.1,4.0,93,84,55,30.08,29.87,7,1,8,0.00
2014-2-10,16.1,7.7,-3.2,11.0,6.7,0.0,92,88,68,30.11,29.88,12,1,12,0.00
2014-2-11,12.8,2.4,-10.7,8.0,1.8,-6.0,92,86,64,30.37,30.10,9,1,13,0.00
2014-2-12,28.9,-1.3,-28.5,8.0,-5.8,-23.0,94,75,23,30.43,30.16,9,1,12,0.07
2014-2-13,25.9,14.2,-1.9,21.0,10.1,-6.0,93,82,54,30.17,29.34,12,2,15,0.00
2014-2-14,21.8,19.2,16.4,21.0,17.3,14.0,93,93,91,29.68,29.15,12,2,20,0.00
2014-2-15,29.9,22.5,13.5,26.0,19.6,11.0,93,88,68,29.78,29.68,9,1,12,0.04
2014-2-16,16.9,6.0,-10.6,11.0,2.8,-6.0,93,80,48,30.03,29.73,13,2,19,0.00
2014-2-17,20.1,-2.4,-21.4,8.0,-4.3,-13.0,93,78,34,30.29,30.02,12,1,13,0.00
2014-2-18,27.2,16.0,-14.5,23.0,13.4,-13.0,93,85,45,30.15,29.89,28,4,33,0.01
2014-2-19,36.3,25.8,11.1,33.0,22.7,11.0,95,88,52,29.98,29.66,21,2,27,0.01
2014-2-20,40.9,30.4,13.4,32.0,25.9,11.0,95,84,54,30.14,29.91,10,1,16,0.12
2014-2-21,44.1,34.3,26.8,43.0,33.1,26.0,96,95,90,30.00,29.62,17,2,20,0.72
2014-2-22,40.7,32.9,28.1,29.0,20.5,11.0,94,61,31,29.87,29.74,24,4,26,0.07
2014-2-23,39.2,31.2,22.1,23.0,16.5,11.0,73,53,32,29.90,29.79,16,4,21,0.00
2014-2-24,22.1,14.6,9.3,18.0,8.9,4.0,88,73,50,29.89,29.74,15,3,28,0.00
2014-2-25,13.2,8.0,-0.1,8.0,4.3,0.0,92,80,67,29.89,29.79,11,2,17,0.00
2014-2-26,10.5,3.9,-3.6,8.0,-1.2,-6.0,92,72,40,29.79,29.64,18,2,22,0.00
2014-2-27,14.3,4.3,-3.3,11.0,0.9,-13.0,91,78,56,29.84,29.44,19,3,22,0.00
2014-2-28,11.7,-1.7,-15.5,0.0,-7.1,-13.0,93,70,32,30.27,29.84,12,2,13,0.00
2014-3-1,30.9,12.4,-16.1,18.0,1.6,-13.0,93,61,30,30.25,29.96,14,2,21,0.00
2014-3-2,24.5,12.3,-8.8,21.0,8.9,-6.0,93,82,61,30.07,29.97,9,2,16,0.01
2014-3-3,11.6,-1.1,-16.2,0.0,-6.0,-13.0,93,73,40,30.21,29.97,11,2,14,0.00
2014-3-4,18.8,0.2,-24.1,8.0,-3.3,-23.0,93,77,28,30.21,30.15,9,1,11,0.01
2014-3-5,15.9,5.7,-17.3,11.0,4.8,-13.0,93,86,69,30.47,30.15,12,2,12,0.00
2014-3-6,30.4,0.3,-27.7,4.0,-6.3,-23.0,94,69,30,30.54,30.32,6,1,11,0.00
2014-3-7,43.4,14.7,-18.2,18.0,3.2,-13.0,93,64,13,30.32,29.87,10,1,15,0.00
2014-3-8,34.7,20.8,3.3,28.0,17.8,4.0,93,86,66,29.91,29.78,6,1,9,0.00
2014-3-9,26.9,12.1,-8.4,16.0,4.5,-6.0,93,69,30,29.97,29.78,14,2,15,0.00
2014-3-10,35.7,26.6,17.3,31.0,23.9,16.0,95,89,72,29.78,29.47,14,2,15,0.08
2014-3-11,43.6,34.4,21.4,35.0,30.0,18.0,95,84,54,29.72,29.47,14,2,21,0.08
2014-3-12,27.6,24.4,21.3,26.0,23.1,18.0,94,93,93,29.71,29.66,9,1,10,0.00
2014-3-13,10.5,1.7,-13.3,4.0,-0.3,-13.0,93,81,61,29.90,29.47,15,2,18,0.00
2014-3-14,36.3,11.3,-22.1,29.0,8.6,-13.0,93,80,60,29.95,29.64,17,2,25,0.04
2014-3-15,39.1,33.2,18.9,35.0,28.7,18.0,95,83,58,29.92,29.58,17,4,26,0.28
2014-3-16,18.9,6.4,-16.4,18.0,2.1,-13.0,93,78,54,30.15,29.92,14,2,17,0.01
2014-3-17,22.9,-3.0,-29.6,4.0,-8.6,-23.0,94,70,33,30.12,30.03,10,1,12,0.01
2014-3-18,39.7,10.6,-19.1,8.0,-1.3,-13.0,93,60,22,30.23,30.11,9,1,15,0.00
2014-3-19,36.5,22.5,1.2,32.0,13.6,0.0,95,69,23,30.21,29.80,26,6,28,0.00
2014-3-20,36.9,32.5,26.9,36.0,29.0,23.0,95,86,70,29.80,29.61,18,4,26,0.04
2014-3-21,34.1,25.2,9.8,24.0,19.6,8.0,93,79,46,30.00,29.68,13,2,17,0.03
2014-3-22,33.7,22.1,1.9,31.0,19.5,4.0,94,86,58,30.00,29.57,22,3,26,0.03
2014-3-23,27.7,14.2,-10.5,24.0,7.4,-6.0,94,72,35,30.09,29.87,12,3,17,0.01
2014-3-24,22.9,3.1,-23.7,8.0,-3.9,-23.0,93,67,35,30.11,30.00,16,2,18,0.00
2014-3-25,29.2,12.9,-7.6,14.0,5.3,-6.0,92,68,35,30.03,27.77,14,2,21,0.00
2014-3-26,21.3,11.1,-0.4,14.0,5.1,0.0,93,70,38,30.09,29.84,17,2,21,0.01
2014-3-27,36.7,17.6,-11.1,24.0,4.4,-6.0,93,57,25,30.23,30.05,12,2,17,0.00
2014-3-28,44.2,36.4,28.9,43.0,34.4,23.0,96,92,66,30.08,29.82,15,3,19,0.22
2014-3-29,38.9,34.2,29.5,38.0,31.6,26.0,96,89,75,30.27,30.00,12,2,13,0.01
2014-3-30,34.3,29.9,25.0,33.0,28.6,24.0,95,94,91,30.00,29.83,11,3,17,0.09
2014-3-31,34.1,27.7,20.8,31.0,25.5,18.0,95,90,79,30.19,29.94,16,2,16,0.13
2014-4-1,49.6,33.2,17.2,33.0,25.2,16.0,94,74,48,30.18,29.92,13,2,13,0.81
2014-4-2,50.9,40.8,27.2,33.0,28.7,23.0,94,63,36,30.08,29.92,18,3,21,0.11
2014-4-3,44.5,31.9,23.8,26.0,23.3,21.0,88,70,42,30.16,30.07,10,2,15,0.00
2014-4-4,50.4,33.9,14.7,37.0,26.1,14.0,94,75,39,30.12,29.68,22,4,34,0.21
2014-4-5,39.1,33.3,27.2,37.0,28.8,23.0,95,83,66,29.97,29.65,27,5,30,0.03
2014-4-6,48.8,33.2,22.7,26.0,22.7,21.0,93,67,35,30.18,29.97,12,2,20,0.00
2014-4-7,54.7,36.9,17.5,37.0,23.1,16.0,94,64,27,30.18,29.74,19,3,26,0.04
2014-4-8,52.2,42.2,33.8,47.0,39.6,32.0,97,90,72,29.76,29.34,21,4,26,0.30
2014-4-9,39.6,32.7,20.3,35.0,22.9,8.0,95,71,27,29.93,29.62,16,2,19,0.01
2014-4-10,58.9,40.7,15.6,35.0,25.6,14.0,94,61,33,30.01,29.82,24,5,33,0.00
2014-4-11,55.2,43.9,23.8,47.0,33.7,23.0,97,71,30,30.06,29.87,22,2,26,0.15
2014-4-12,56.1,39.1,21.3,36.0,27.7,18.0,95,68,34,30.25,30.04,16,1,21,0.00
2014-4-13,68.9,47.8,34.3,52.0,41.9,29.0,97,82,50,30.23,29.92,14,2,17,0.28
2014-4-14,75.6,57.1,33.7,57.0,46.3,33.0,97,72,39,29.97,29.77,26,5,33,0.21
2014-4-15,61.7,45.2,20.1,57.0,43.6,18.0,98,94,78,29.94,29.55,23,3,29,0.71
2014-4-16,29.4,19.1,11.5,18.0,14.3,11.0,93,81,52,30.57,29.91,16,2,16,0.25
2014-4-17,47.3,28.7,8.1,24.0,15.2,8.0,94,62,24,30.70,30.51,11,2,16,0.00
2014-4-18,53.9,39.3,22.1,37.0,24.4,18.0,94,60,26,30.51,30.21,12,2,14,0.00
2014-4-19,45.7,36.4,22.1,40.0,30.7,21.0,96,81,44,30.46,30.18,11,2,14,0.01
2014-4-20,60.9,38.8,17.2,31.0,19.6,14.0,95,57,15,30.51,30.25,9,2,13,0.00
2014-4-21,69.5,50.0,30.9,41.0,33.2,26.0,91,59,24,30.25,29.88,14,1,17,0.00
2014-4-22,60.9,49.6,39.8,53.0,44.4,37.0,97,84,43,29.88,29.57,15,2,17,0.03
2014-4-23,45.4,39.1,35.4,44.0,35.6,23.0,97,87,59,29.85,29.58,13,2,21,0.10
2014-4-24,47.7,35.6,24.7,24.0,20.0,16.0,80,52,33,30.06,29.84,15,3,17,0.00
2014-4-25,57.8,39.1,17.1,26.0,20.4,11.0,93,53,18,30.07,29.80,12,2,16,0.00
2014-4-26,43.8,39.0,34.9,41.0,37.1,26.0,96,93,48,29.89,29.71,7,1,9,0.13
2014-4-27,41.5,36.1,32.4,39.0,35.0,31.0,96,95,88,30.18,29.89,6,1,9,0.13
2014-4-28,52.4,41.0,27.5,39.0,33.7,26.0,95,77,43,30.24,30.13,16,2,19,0.01
2014-4-29,54.2,45.2,37.9,40.0,36.5,29.0,96,74,40,30.39,30.22,18,3,26,0.32
2014-4-30,49.2,43.3,36.9,47.0,41.6,35.0,97,93,80,30.40,30.00,31,3,34,0.50
2014-5-1,61.9,51.8,37.1,54.0,48.0,36.0,97,88,70,30.00,29.79,29,4,37,0.18
2014-5-2,53.1,43.0,33.7,45.0,37.7,33.0,97,83,54,29.87,29.72,16,2,22,0.03
2014-5-3,55.6,45.6,38.9,47.0,42.5,38.0,97,89,59,29.89,29.72,12,2,23,0.11
2014-5-4,43.4,40.3,37.8,42.0,39.1,37.0,96,95,86,29.80,29.64,11,2,16,0.63
2014-5-5,43.2,39.1,33.8,42.0,38.2,33.0,96,96,94,29.99,29.80,10,1,12,0.09
2014-5-6,53.5,39.6,26.9,39.0,30.2,26.0,96,73,39,30.15,29.92,14,2,20,0.00
2014-5-7,62.7,41.2,20.3,36.0,26.8,18.0,95,65,20,30.33,30.13,11,2,13,0.00
2014-5-8,68.5,47.9,25.2,41.0,29.0,24.0,95,56,21,30.28,30.20,13,2,16,0.00
2014-5-9,72.3,56.4,42.9,56.0,49.9,41.0,97,81,54,30.24,30.02,18,3,24,0.06
2014-5-10,71.6,62.3,51.7,60.0,49.5,32.0,98,68,32,30.04,29.91,26,3,27,0.29
2014-5-11,68.1,54.0,39.6,42.0,38.5,36.0,95,59,32,30.19,29.92,16,2,21,0.00
2014-5-12,76.3,55.8,32.3,50.0,40.3,31.0,96,63,28,30.24,30.06,12,2,16,0.00
2014-5-13,70.7,57.8,49.3,53.0,46.2,39.0,89,67,49,30.29,30.21,7,1,11,0.00
2014-5-14,79.8,63.2,49.9,68.0,56.9,47.0,99,83,50,30.31,30.18,16,1,16,0.47
2014-5-15,75.1,66.3,54.2,63.0,59.5,53.0,98,80,62,30.28,30.23,26,6,31,0.00
2014-5-16,74.1,63.3,45.7,61.0,57.8,45.0,97,83,63,30.25,29.94,26,8,44,0.67
2014-5-17,59.4,47.4,31.3,45.0,38.3,29.0,97,74,39,30.19,29.92,11,2,14,0.65
2014-5-18,57.7,41.8,24.5,36.0,30.0,24.0,95,68,36,30.30,30.19,12,2,19,0.00
2014-5-19,63.4,45.0,25.0,39.0,31.6,24.0,96,66,29,30.27,30.18,12,2,16,0.00
2014-5-20,69.1,49.8,27.4,45.0,33.8,26.0,96,63,25,30.25,30.11,16,2,19,0.00
2014-5-21,72.4,54.2,29.9,45.0,37.4,29.0,96,60,27,30.13,29.99,8,1,11,0.01
2014-5-22,65.3,52.6,43.7,56.0,49.3,42.0,97,90,64,29.99,29.93,11,1,14,0.41
2014-5-23,62.7,52.2,42.4,56.0,50.1,41.0,97,93,73,30.09,29.94,10,1,13,0.09
2014-5-24,63.9,55.5,48.6,57.0,51.6,46.0,97,88,61,30.20,30.08,7,1,12,0.12
2014-5-25,75.6,58.2,36.7,52.0,44.1,36.0,97,67,25,30.23,30.10,10,1,14,0.00
2014-5-26,73.3,62.2,51.2,58.0,51.8,45.0,97,72,41,30.10,29.99,14,2,19,0.06
2014-5-27,77.2,61.6,45.4,66.0,55.7,44.0,98,84,49,30.00,29.93,11,1,13,0.04
2014-5-28,56.7,52.1,49.5,54.0,50.1,46.0,97,94,82,30.29,29.96,16,2,19,0.03
2014-5-29,67.8,54.2,32.2,50.0,42.3,31.0,97,68,39,30.31,30.21,6,1,10,0.00
2014-5-30,67.1,52.2,36.8,54.0,47.2,36.0,97,85,48,30.25,30.17,17,1,19,0.18
2014-5-31,63.2,48.8,31.7,50.0,42.6,31.0,97,82,55,30.41,30.24,12,2,15,0.00
2014-6-1,77.7,55.7,31.3,51.0,42.6,29.0,97,68,29,30.46,30.27,12,1,12,0.00
2014-6-2,84.1,63.8,40.3,58.0,50.0,39.0,97,68,30,30.29,30.12,16,2,18,0.00
2014-6-3,78.8,65.1,56.3,68.0,61.4,55.0,99,90,60,30.12,29.93,12,1,16,0.38
2014-6-4,69.1,60.0,44.3,61.0,50.3,42.0,98,74,44,30.02,29.87,13,2,16,0.01
2014-6-5,67.9,53.1,35.1,54.0,46.5,33.0,97,81,48,29.93,29.80,9,1,14,0.01
2014-6-6,65.4,56.4,51.3,55.0,52.3,50.0,97,88,64,30.10,29.91,11,2,14,0.01
2014-6-7,77.2,61.9,46.3,57.0,50.5,45.0,97,72,37,30.18,30.09,9,1,16,0.00
2014-6-8,80.9,61.9,38.3,61.0,49.8,37.0,98,71,27,30.14,27.94,11,1,12,0.00
2014-6-9,77.2,65.5,55.2,59.0,55.2,50.0,98,73,41,30.17,30.05,11,2,11,0.00
2014-6-10,72.9,62.4,52.9,58.0,54.7,50.0,98,78,47,30.22,30.09,14,2,16,0.00
2014-6-11,68.3,55.7,46.8,57.0,50.2,37.0,97,85,35,30.28,30.17,16,2,19,0.73
2014-6-12,63.7,59.7,54.9,62.0,57.9,53.0,98,94,82,30.17,30.07,19,2,21,0.41
2014-6-13,69.3,64.3,61.1,67.0,63.2,60.0,99,97,86,30.08,29.91,20,1,23,0.36
2014-6-14,61.2,56.0,51.7,60.0,52.8,47.0,98,90,68,30.15,29.93,13,2,14,0.15
2014-6-15,70.5,56.8,45.3,54.0,50.8,44.0,97,83,46,30.28,30.14,9,2,13,0.01
2014-6-16,79.3,60.6,37.7,57.0,48.2,37.0,97,69,29,30.32,30.18,8,1,10,0.00
2014-6-17,80.9,67.9,50.4,65.0,55.4,49.0,98,69,35,30.25,29.87,12,2,18,0.11
2014-6-18,72.7,65.0,60.9,64.0,61.0,57.0,98,89,60,30.17,29.86,12,2,16,0.15
2014-6-19,71.6,63.0,44.5,61.0,47.9,35.0,98,64,27,30.23,30.13,12,2,14,0.01
2014-6-20,65.5,52.2,38.8,50.0,41.4,36.0,97,72,38,30.18,30.10,12,2,14,0.00
2014-6-21,67.1,52.5,34.9,50.0,42.5,33.0,97,73,40,30.14,30.07,12,2,16,0.00
2014-6-22,74.4,58.0,39.2,55.0,46.9,38.0,97,72,38,30.18,30.07,9,2,12,0.00
2014-6-23,78.7,61.7,39.5,57.0,48.5,38.0,97,69,29,30.28,30.16,10,2,16,0.00
2014-6-24,75.3,66.8,58.8,67.0,62.4,57.0,99,87,69,30.21,30.06,14,2,21,0.15
2014-6-25,68.5,65.5,62.9,67.0,64.6,62.0,99,98,97,30.09,30.05,7,1,11,1.99
2014-6-26,73.3,64.6,49.1,64.0,58.5,48.0,98,83,49,30.19,30.03,11,2,12,0.01
2014-6-27,78.4,60.8,41.0,58.0,49.0,40.0,97,71,36,30.36,30.19,7,1,11,0.00
2014-6-28,80.9,62.8,41.4,60.0,51.0,40.0,98,72,35,30.47,30.34,5,1,7,0.00
2014-6-29,84.1,67.0,47.9,63.0,56.1,47.0,98,73,35,30.39,30.19,9,1,12,0.00
2014-6-30,84.0,69.9,58.7,68.0,63.5,58.0,99,83,50,30.20,30.06,10,1,12,0.00
2014-7-1,87.1,73.0,57.8,72.0,64.5,57.0,99,78,49,30.07,29.94,19,3,27,0.00
2014-7-2,81.5,74.3,65.9,70.0,64.6,58.0,99,74,48,30.10,29.96,11,2,17,0.05
2014-7-3,81.3,66.7,56.8,69.0,62.2,56.0,99,88,53,30.18,30.05,10,1,12,0.67
2014-7-4,67.3,60.5,47.4,62.0,56.8,46.0,98,89,63,30.20,30.09,10,1,14,0.06
2014-7-5,75.2,60.0,41.9,54.0,48.3,41.0,97,69,40,30.25,30.13,17,2,22,0.00
2014-7-6,76.5,65.3,51.4,56.0,52.2,47.0,97,66,38,30.16,29.98,12,2,19,0.00
2014-7-7,71.9,63.3,50.1,67.0,59.6,49.0,98,89,66,29.98,29.82,14,2,17,0.04
2014-7-8,81.8,70.4,55.4,69.0,62.7,54.0,99,79,55,29.95,29.72,14,3,21,0.33
2014-7-9,72.5,65.5,53.9,61.0,56.3,53.0,97,74,55,30.09,29.77,16,3,24,0.00
2014-7-10,71.1,58.1,44.5,54.0,48.9,44.0,97,75,42,30.31,30.09,11,2,14,0.00
2014-7-11,75.9,58.1,38.2,56.0,47.2,37.0,97,73,36,30.42,30.30,7,1,11,0.00
2014-7-12,81.9,63.1,40.7,66.0,53.7,40.0,99,76,36,30.35,30.21,10,1,12,0.03
2014-7-13,75.3,67.4,58.7,68.0,63.3,58.0,99,88,71,30.21,29.97,17,3,19,0.01
2014-7-14,79.6,66.8,57.5,69.0,61.3,56.0,99,85,48,30.09,30.01,8,1,11,0.17
2014-7-15,74.1,65.9,55.5,69.0,62.0,55.0,99,89,69,30.01,29.90,16,1,17,0.04
2014-7-16,72.3,62.3,48.8,64.0,54.1,48.0,98,78,46,30.03,29.93,17,2,17,0.00
2014-7-17,69.9,58.2,46.9,57.0,51.6,46.0,97,81,47,30.23,30.02,9,1,12,0.00
2014-7-18,75.1,58.3,39.4,57.0,48.5,38.0,97,75,37,30.39,30.23,9,1,11,0.00
2014-7-19,75.8,60.5,43.4,60.0,51.8,42.0,97,77,44,30.43,30.33,9,1,10,0.00
2014-7-20,79.1,62.9,44.7,60.0,53.0,44.0,98,74,38,30.36,30.29,7,1,9,0.00
2014-7-21,78.8,64.9,49.9,66.0,56.8,49.0,98,79,47,30.37,30.27,5,1,12,0.00
2014-7-22,83.3,67.7,50.8,65.0,58.3,50.0,98,76,44,30.33,30.10,9,1,12,0.00
2014-7-23,78.1,67.8,58.9,71.0,65.0,58.0,99,92,73,30.11,29.98,12,2,16,0.42
2014-7-24,69.3,59.1,45.9,59.0,52.2,45.0,98,81,46,30.11,30.02,9,1,11,0.00
2014-7-25,74.5,57.8,39.6,57.0,49.2,39.0,97,77,47,30.17,30.08,11,1,14,0.00
2014-7-26,73.4,59.7,45.2,59.0,52.6,44.0,98,81,50,30.10,30.00,10,1,15,0.00
2014-7-27,74.9,64.1,55.9,66.0,60.3,55.0,98,89,63,30.00,29.82,15,1,15,0.46
2014-7-28,60.9,56.9,52.2,60.0,56.1,51.0,98,97,97,29.84,29.70,8,1,13,1.22
2014-7-29,66.6,55.9,44.4,56.0,50.9,43.0,97,85,54,30.10,29.83,9,1,12,0.00
2014-7-30,71.9,55.1,38.1,56.0,47.3,37.0,97,79,42,30.17,30.08,12,1,13,0.00
2014-7-31,69.0,57.1,45.3,59.0,52.3,44.0,98,86,56,30.24,30.12,17,1,20,0.04
2014-8-1,78.7,61.1,42.9,63.0,52.8,42.0,98,78,43,30.35,30.23,14,1,14,0.00
2014-8-2,77.1,60.6,50.1,69.0,58.3,49.0,99,93,60,30.35,30.25,12,1,19,1.10
2014-8-3,78.1,63.3,52.4,66.0,59.5,51.0,99,89,55,30.30,30.21,7,1,8,0.02
2014-8-4,78.5,65.6,56.2,66.0,59.6,55.0,98,84,49,30.25,30.18,8,1,9,0.04
2014-8-5,77.1,64.4,52.2,64.0,58.1,51.0,98,83,50,30.20,30.11,11,1,12,0.01
2014-8-6,73.2,61.1,51.1,60.0,53.5,47.0,98,80,42,30.11,30.05,9,1,10,0.11
2014-8-7,65.9,56.6,50.5,60.0,53.9,50.0,98,92,70,30.16,27.97,15,1,15,0.50
2014-8-8,72.8,58.3,42.2,60.0,52.1,41.0,98,83,49,30.26,30.15,10,1,12,0.00
2014-8-9,77.5,61.1,45.5,59.0,52.1,44.0,98,77,39,30.33,30.22,9,1,12,0.00
2014-8-10,80.6,61.2,42.4,63.0,52.6,41.0,98,78,37,30.36,30.27,7,1,8,0.00
2014-8-11,80.6,63.6,46.5,63.0,55.3,45.0,98,79,43,30.33,30.21,6,1,9,0.00
2014-8-12,70.9,62.5,49.2,59.0,54.0,48.0,98,76,52,30.22,30.05,21,3,27,0.00
2014-8-13,68.3,63.2,52.8,64.0,59.8,52.0,98,90,68,30.06,29.85,17,2,22,1.16
2014-8-14,58.4,53.3,48.7,54.0,49.6,47.0,97,88,71,29.97,29.85,11,2,13,0.03
2014-8-15,58.9,53.3,48.8,53.0,50.3,47.0,97,90,73,30.02,29.93,12,1,13,0.03
2014-8-16,63.9,56.5,49.6,57.0,52.8,49.0,98,89,70,30.06,29.95,14,1,16,0.06
2014-8-17,65.1,58.1,51.9,57.0,55.1,51.0,97,91,71,30.05,29.92,8,1,13,0.03
2014-8-18,68.6,56.7,41.9,57.0,49.3,41.0,97,79,44,30.08,30.00,9,2,11,0.01
2014-8-19,74.1,54.1,34.0,57.0,45.7,33.0,97,78,40,30.11,30.00,7,1,9,0.00
2014-8-20,78.9,61.3,42.2,65.0,55.3,41.0,98,83,55,30.17,30.06,6,1,9,0.00
2014-8-21,74.5,65.0,59.7,67.0,62.2,59.0,99,92,69,30.20,30.15,9,1,11,0.36
2014-8-22,69.6,62.0,56.7,62.0,59.0,56.0,98,91,75,30.24,30.15,7,1,9,0.00
2014-8-23,72.8,62.1,48.4,60.0,56.3,47.0,98,84,53,30.32,30.23,8,1,12,0.00
2014-8-24,77.2,59.0,43.3,59.0,51.7,42.0,98,81,46,30.38,30.28,9,1,12,0.00
2014-8-25,81.3,61.2,41.6,63.0,52.5,41.0,98,78,39,30.41,30.29,7,1,7,0.00
2014-8-26,80.4,63.2,44.7,62.0,53.7,44.0,98,76,42,30.33,30.15,13,2,16,0.00
2014-8-27,78.6,68.6,57.1,66.0,60.6,56.0,98,78,51,30.16,30.11,11,1,13,0.00
2014-8-28,64.6,58.5,52.4,58.0,52.3,47.0,97,81,58,30.21,30.04,11,1,15,0.00
2014-8-29,72.3,59.2,44.9,60.0,53.0,44.0,98,82,52,30.36,30.21,6,1,7,0.00
2014-8-30,78.3,62.9,45.2,62.0,54.0,44.0,98,76,47,30.31,30.18,17,3,18,0.00
2014-8-31,73.1,69.1,63.9,67.0,65.1,61.0,98,89,80,30.18,30.10,16,2,18,0.01
2014-9-1,81.6,68.6,58.3,67.0,61.7,57.0,99,82,47,30.17,30.07,9,1,12,0.00
2014-9-2,82.8,67.7,56.7,69.0,61.7,56.0,99,85,48,30.07,29.91,10,1,14,0.19
2014-9-3,73.5,62.6,48.1,61.0,56.0,47.0,98,82,46,30.24,29.98,9,1,16,0.00
2014-9-4,79.6,60.6,41.9,63.0,52.4,41.0,98,79,40,30.31,30.23,13,1,18,0.00
2014-9-5,84.2,75.8,54.6,66.0,63.1,54.0,98,67,46,30.28,30.09,11,2,16,0.00
2014-9-6,74.8,65.7,56.7,66.0,61.9,56.0,98,89,70,30.12,29.99,10,2,16,0.26
2014-9-7,69.2,55.8,44.4,56.0,49.2,43.0,97,82,43,30.35,30.11,9,1,11,0.01
2014-9-8,73.9,54.6,36.9,55.0,46.2,36.0,97,78,41,30.50,30.35,10,1,13,0.00
2014-9-9,72.3,54.7,36.9,56.0,45.3,36.0,97,76,33,30.43,30.25,9,1,12,0.00
2014-9-10,73.7,61.2,49.9,60.0,55.1,49.0,98,83,54,30.27,30.03,9,1,15,0.00
2014-9-11,70.9,61.3,47.7,66.0,57.6,47.0,98,89,73,30.14,29.83,19,4,24,0.12
2014-9-12,50.4,46.4,35.1,47.0,43.0,33.0,97,89,76,30.35,30.14,7,1,11,0.00
2014-9-13,52.4,43.9,32.2,51.0,42.8,31.0,97,96,91,30.32,30.12,16,1,16,0.22
2014-9-14,57.0,44.2,35.9,46.0,40.0,35.0,96,86,58,30.36,30.27,9,2,11,0.01
2014-9-15,60.9,46.2,31.9,50.0,40.0,31.0,97,82,46,30.30,30.13,7,1,13,0.00
2014-9-16,62.1,50.2,39.6,53.0,46.4,38.0,97,89,49,30.14,30.07,6,1,12,0.15
2014-9-17,63.5,46.6,29.7,50.0,39.8,29.0,97,81,47,30.14,30.04,9,1,11,0.00
2014-9-18,52.4,45.4,28.7,49.0,42.7,28.0,97,91,67,30.25,30.03,6,1,12,0.01
2014-9-19,58.2,39.1,21.7,40.0,30.2,21.0,95,74,36,30.45,30.25,12,2,18,0.01
2014-9-20,64.3,57.1,45.9,57.0,52.1,40.0,91,84,71,30.31,30.08,14,5,25,0.00
2014-9-21,73.9,64.4,57.5,64.0,57.9,56.0,98,81,60,30.08,29.72,18,5,24,0.38
2014-9-22,58.7,46.9,41.4,58.0,45.4,39.0,98,95,85,30.19,29.70,9,2,17,0.09
2014-9-23,53.6,47.6,37.6,53.0,46.4,37.0,97,96,88,30.52,30.20,6,1,7,0.03
2014-9-24,71.4,52.9,41.2,59.0,48.2,40.0,97,86,49,30.69,30.52,5,1,8,0.01
2014-9-25,68.8,50.1,35.6,57.0,45.9,35.0,97,87,52,30.59,30.38,6,1,9,0.00
2014-9-26,75.3,53.9,37.9,57.0,47.5,37.0,97,83,44,30.43,30.36,7,1,8,0.00
2014-9-27,78.9,56.3,38.1,61.0,50.1,37.0,98,83,46,30.43,30.33,9,1,10,0.00
2014-9-28,76.8,57.0,43.4,60.0,50.7,42.0,98,83,44,30.33,30.16,8,1,11,0.00
2014-9-29,77.6,56.7,41.5,58.0,49.1,41.0,97,81,31,30.16,30.05,6,1,10,0.00
2014-9-30,70.5,55.4,41.1,59.0,50.8,40.0,98,87,59,30.15,30.05,5,1,11,0.00
2014-10-1,63.9,53.3,45.6,56.0,50.7,45.0,97,92,73,30.25,30.14,8,1,11,0.00
2014-10-2,71.7,55.2,45.2,56.0,50.3,44.0,97,86,53,30.31,30.20,7,1,10,0.00
2014-10-3,71.9,57.0,39.6,56.0,44.8,39.0,96,68,38,30.20,29.88,19,3,23,0.00
2014-10-4,60.4,53.8,43.3,56.0,51.1,42.0,97,91,68,29.88,29.64,9,1,14,0.43
2014-10-5,53.9,42.9,30.6,42.0,37.1,29.0,96,82,49,29.95,29.71,12,2,14,0.00
2014-10-6,58.7,44.7,24.9,47.0,35.5,24.0,96,73,51,30.09,29.95,20,5,24,0.01
2014-10-7,62.4,55.3,42.3,53.0,48.5,41.0,97,79,57,30.07,29.96,21,4,24,0.07
2014-10-8,58.7,51.8,44.2,54.0,46.8,37.0,97,84,64,29.96,29.70,16,3,19,0.47
2014-10-9,49.3,44.2,37.9,41.0,37.0,31.0,88,76,55,30.05,29.89,19,3,21,0.00
2014-10-10,49.7,42.1,32.5,43.0,38.3,32.0,96,87,69,30.17,30.04,11,1,13,0.00
2014-10-11,50.4,37.8,28.4,42.0,34.5,26.0,96,89,55,30.20,30.13,9,1,9,0.00
2014-10-12,58.6,39.0,26.8,40.0,32.1,26.0,96,80,29,30.37,30.20,7,1,8,0.00
2014-10-13,64.3,43.4,21.3,53.0,38.9,18.0,97,85,61,30.33,30.25,11,1,12,0.00
2014-10-14,74.5,62.8,45.8,60.0,55.5,45.0,98,79,55,30.27,30.15,20,4,25,0.01
2014-10-15,73.9,69.2,66.3,63.0,60.0,58.0,87,73,63,30.17,30.04,23,6,26,0.01
2014-10-16,69.5,63.5,52.5,66.0,60.8,52.0,99,92,71,30.04,29.76,16,2,21,0.24
2014-10-17,62.4,54.3,48.3,53.0,50.7,47.0,97,89,61,29.76,29.70,16,2,17,0.00
2014-10-18,56.6,50.3,37.9,53.0,48.2,37.0,97,93,80,29.80,29.63,11,2,12,0.28
2014-10-19,38.1,34.3,25.9,37.0,31.9,24.0,95,90,78,30.03,29.80,11,2,14,0.04
2014-10-20,45.8,34.9,22.8,42.0,31.9,21.0,96,89,70,30.03,29.97,13,1,13,0.00
2014-10-21,44.3,41.7,38.9,43.0,40.7,38.0,96,96,96,30.17,29.97,6,1,8,0.25
2014-10-22,45.2,42.5,40.5,44.0,41.1,39.0,96,94,84,30.27,30.15,12,2,16,0.02
2014-10-23,43.1,40.9,39.3,41.0,39.7,38.0,96,95,86,30.15,29.95,14,2,17,0.22
2014-10-24,44.9,41.3,34.2,44.0,40.3,33.0,96,96,95,29.96,29.91,9,1,11,0.07
2014-10-25,44.1,31.8,25.9,43.0,30.7,24.0,96,95,94,29.91,29.81,2,0,3,0.01
2014-10-26,47.2,41.0,38.7,45.0,40.0,38.0,97,96,91,29.82,29.55,9,1,12,0.63
2014-10-27,39.1,35.7,28.2,38.0,34.8,26.0,96,95,94,30.05,29.82,9,1,14,0.03
2014-10-28,63.7,45.5,29.8,61.0,44.1,29.0,97,95,74,30.06,29.93,13,1,14,0.09
2014-10-29,57.2,47.5,32.4,56.0,44.3,31.0,97,90,70,29.96,29.91,13,1,16,0.04
2014-10-30,43.6,38.8,33.9,41.0,36.8,33.0,96,92,78,30.06,29.93,6,1,9,0.06
2014-10-31,47.1,34.8,24.2,36.0,30.2,23.0,95,84,54,30.09,30.03,7,1,10,0.00
2014-11-1,39.4,32.5,28.1,33.0,29.8,26.0,95,90,70,30.07,30.02,11,2,14,0.00
2014-11-2,37.6,30.8,25.9,29.0,22.2,14.0,93,70,44,30.08,29.98,16,3,22,0.01
2014-11-3,40.9,31.2,19.1,35.0,26.4,18.0,95,82,65,30.11,29.98,8,1,13,0.00
2014-11-4,57.9,46.5,26.8,45.0,35.0,26.0,96,68,31,30.12,29.98,16,2,21,0.00
2014-11-5,57.3,46.6,41.2,47.0,37.8,29.0,97,72,33,30.15,29.95,17,3,26,0.11
2014-11-6,42.7,36.4,29.4,38.0,33.7,28.0,96,89,71,30.14,29.72,9,1,9,0.10
2014-11-7,34.5,31.3,26.5,33.0,29.9,23.0,95,93,82,29.87,29.67,14,2,15,0.12
2014-11-8,36.6,30.7,23.9,32.0,24.7,21.0,89,78,64,29.94,29.80,15,2,18,0.00
2014-11-9,38.7,33.5,24.0,35.0,29.4,23.0,95,85,68,29.96,29.78,15,2,22,0.01
2014-11-10,45.4,37.0,28.1,39.0,33.1,26.0,96,85,69,30.17,29.94,14,1,16,0.01
2014-11-11,59.1,51.5,31.8,47.0,37.8,31.0,95,61,42,30.09,29.95,18,5,24,0.00
2014-11-12,55.6,43.3,32.0,51.0,38.7,24.0,97,84,72,30.08,29.89,22,4,22,0.04
2014-11-13,34.1,29.9,24.6,28.0,24.7,21.0,94,79,67,30.08,29.96,7,1,12,0.00
2014-11-14,28.4,23.4,14.7,24.0,20.8,14.0,94,88,69,30.11,29.93,11,1,16,0.00
2014-11-15,30.1,21.9,14.3,24.0,15.8,11.0,93,76,55,30.25,30.11,12,2,14,0.00
2014-11-16,33.0,29.8,26.3,26.0,23.4,21.0,94,75,61,30.22,30.03,13,3,16,0.00
2014-11-17,34.2,31.2,28.3,33.0,30.0,24.0,95,94,78,30.03,29.49,10,1,14,0.00
2014-11-18,31.7,19.8,14.9,31.0,14.5,8.0,95,77,55,29.72,29.50,21,4,27,0.01
2014-11-19,22.4,17.0,7.2,16.0,14.1,8.0,93,85,67,30.03,29.70,17,3,20,0.00
2014-11-20,27.8,20.7,14.4,23.0,17.3,11.0,93,84,59,29.84,29.72,16,4,27,0.00
2014-11-21,19.8,14.5,6.4,16.0,11.4,4.0,93,84,60,30.33,29.85,13,2,16,0.00
2014-11-22,39.7,28.9,7.2,39.0,21.4,8.0,96,75,29,30.30,29.97,16,4,21,0.17
2014-11-23,45.2,39.1,32.8,44.0,38.1,32.0,96,96,94,30.14,29.98,7,1,12,0.14
2014-11-24,62.6,54.5,39.2,55.0,50.2,35.0,97,86,68,29.99,29.54,24,6,30,0.90
2014-11-25,48.4,38.9,31.1,47.0,31.8,26.0,95,75,60,30.17,29.70,20,4,23,0.01
2014-11-26,31.6,26.6,22.6,26.0,23.5,21.0,94,88,72,30.23,29.96,12,2,16,0.00
2014-11-27,25.9,22.8,20.7,24.0,21.3,18.0,93,92,84,30.03,29.94,9,1,11,0.00
2014-11-28,21.3,16.9,4.8,18.0,15.2,8.0,93,90,72,30.16,30.00,9,1,17,0.00
2014-11-29,30.2,15.9,0.3,26.0,13.8,0.0,93,84,67,30.21,29.99,17,1,22,0.02
2014-11-30,49.1,39.7,28.7,47.0,36.3,23.0,97,88,76,30.01,29.94,21,3,24,0.36
2014-12-1,50.6,34.6,20.2,50.0,33.0,16.0,97,93,77,30.52,29.95,13,2,20,0.03
2014-12-2,31.6,17.7,2.9,29.0,13.7,4.0,94,80,60,30.63,30.21,17,3,25,0.00
2014-12-3,39.9,34.4,27.3,39.0,32.6,24.0,96,92,79,30.22,29.87,20,4,31,0.10
2014-12-4,27.6,17.8,0.2,24.0,14.7,0.0,93,83,66,30.51,30.05,19,2,22,0.00
2014-12-5,35.2,18.5,-0.9,32.0,15.8,0.0,93,85,61,30.54,30.31,14,2,18,0.05
2014-12-6,36.7,32.3,25.2,35.0,30.8,24.0,95,94,86,30.41,30.21,16,1,18,0.01
2014-12-7,25.2,12.9,-1.7,24.0,9.7,0.0,94,82,51,30.69,30.40,8,2,12,0.00
2014-12-8,31.9,14.3,-2.1,24.0,9.8,0.0,93,78,36,30.66,30.36,12,1,14,0.01
2014-12-9,33.7,28.0,19.9,33.0,26.6,18.0,95,94,93,30.37,29.91,6,1,7,0.01
2014-12-10,30.5,27.4,25.0,29.0,26.0,24.0,94,94,94,29.91,29.57,0,0,0,0.00
2014-12-11,27.4,24.6,22.3,26.0,23.4,21.0,94,93,93,29.81,29.55,0,0,0,0.00
2014-12-12,23.7,21.3,18.9,23.0,19.4,18.0,93,93,93,30.01,29.81,0,0,0,0.00
2014-12-13,24.3,21.9,18.9,23.0,20.2,18.0,93,93,93,30.00,29.90,0,0,0,0.00
2014-12-14,31.1,27.8,23.6,29.0,26.4,23.0,94,94,93,30.01,29.89,0,0,0,0.01
2014-12-15,30.2,26.8,24.4,29.0,25.3,23.0,94,94,93,30.12,30.01,0,0,0,0.00
2014-12-16,36.9,27.5,17.7,36.0,26.0,16.0,95,94,93,30.08,29.88,6,0,9,0.16
2014-12-17,37.9,33.4,31.5,37.0,32.4,31.0,95,95,95,29.88,29.80,6,1,7,0.62
2014-12-18,31.5,26.0,19.9,29.0,24.5,18.0,95,94,93,29.96,29.80,9,1,12,0.00
2014-12-19,20.1,17.8,10.9,18.0,16.3,8.0,93,93,92,30.18,29.95,6,1,7,0.00
2014-12-20,28.9,10.9,-2.1,24.0,10.4,0.0,93,90,78,30.27,30.18,4,0,6,0.05
2014-12-21,23.9,13.0,-1.1,23.0,12.4,0.0,93,92,89,30.34,30.24,3,0,6,0.00
2014-12-22,34.9,17.1,-0.7,32.0,16.5,0.0,94,92,81,30.34,30.19,5,1,7,0.03
2014-12-23,40.6,31.6,21.7,40.0,30.4,21.0,96,95,93,30.20,30.09,4,0,6,0.27
2014-12-24,54.3,42.3,33.7,53.0,41.2,33.0,97,96,91,30.10,29.51,20,2,26,1.03
2014-12-25,53.5,39.4,33.9,53.0,36.6,28.0,97,89,76,30.00,29.44,22,5,39,0.26
2014-12-26,39.6,33.8,27.3,32.0,30.4,26.0,95,86,70,30.19,30.00,17,2,23,0.00
2014-12-27,44.9,37.7,33.2,40.0,34.9,31.0,96,89,73,30.21,29.91,13,1,16,0.01
2014-12-28,45.9,34.4,22.6,41.0,31.6,21.0,96,89,74,30.02,29.80,13,3,18,0.15
2014-12-29,27.1,19.1,7.4,23.0,13.3,4.0,93,75,51,30.21,29.99,11,2,14,0.00
2014-12-30,14.8,4.5,-6.2,8.0,0.0,-6.0,92,76,38,30.32,30.19,9,1,11,0.00
2014-12-31,15.3,9.7,0.6,11.0,6.9,4.0,92,81,59,30.19,29.89,16,2,26,0.00
2015-1-1,22.2,17.6,12.4,21.0,13.3,11.0,93,80,60,29.89,29.76,19,4,21,0.00
2015-1-2,23.5,15.7,-3.8,21.0,14.2,0.0,93,89,78,30.40,29.81,14,2,17,0.00